Audubon, New Jersey
Current Conditions -  °F | °C
As of 11:54 PM on Saturday 20 Dec 2014 (Local Time) from KPHL Reporting Station
Overcast Overcast  
Wind Chill: 34°   Ceiling: 3200
Heat Index: 34°   Visibility: 10mi
Dew Point: 23°   Wind: 3mph
Humidity: 64%   Direction: 190°S
Pressure: 30.31"   Gusts: NA
Location:  39.89°N, 75.09°W
Report Text: KPHL 210454Z 19003KT 10SM OVC032 01/M05 A3031 RMK AO2 SLP263 T00111050 400170006
Loading
Personal Weather Stations






























Interactive Weather Map New forecast layout! Learn more

10-Day Weather Forecast

Advertisements
Track Severe Weather on mobile